East Quilcene, Washington
Current Conditions -  °F | °C
As of 2:15 AM on Friday 31 Oct 2014 (Local Time) from KPWT Reporting Station
Broken Clouds Broken Clouds  
Wind Chill: 11°   Ceiling: 2900
Heat Index: 11°   Visibility: 10mi
Dew Point: 11°   Wind: 5mph
Humidity: 100%   Direction: 180°S
Pressure: 29.78"   Gusts: NA
Location:  47.8412°N, 122.841°W
Report Text: KPWT 310915Z AUTO 18004KT 10SM FEW009 SCT023 BKN029 11/11 A2978 RMK AO1 P0002
Loading
Personal Weather Stations






























Interactive Weather Map
Tropical Storm Tracking
New forecast layout! Learn more

10-Day Weather Forecast

Advertisements
Track Severe Weather on mobile